createdAt,value
2023-02-26T00:01:43.800Z,101536.34
2023-02-26T00:04:10.349Z,101529.59
2023-02-26T00:06:37.905Z,101531.47
2023-02-26T00:09:05.246Z,101536.78
2023-02-26T00:11:31.835Z,101532.34
2023-02-26T00:13:58.343Z,101534.88
2023-02-26T00:16:26.921Z,101538.53
2023-02-26T00:18:54.944Z,101545.53
2023-02-26T00:21:22.435Z,101541.09
2023-02-26T00:23:48.965Z,101547.03
2023-02-26T00:26:15.271Z,101547.34
2023-02-26T00:28:41.887Z,101550.75
2023-02-26T00:31:08.695Z,101549.06
2023-02-26T00:33:35.436Z,101556.22
2023-02-26T00:36:09.093Z,101559.66
2023-02-26T00:38:36.177Z,101562.41
2023-02-26T00:41:02.993Z,101552.22
2023-02-26T00:43:29.563Z,101570.25
2023-02-26T00:45:59.558Z,101579.31
2023-02-26T00:48:32.837Z,101569.91
2023-02-26T00:51:01.769Z,101574.41
2023-02-26T00:53:34.131Z,101578.78
2023-02-26T00:56:00.457Z,101573.84
2023-02-26T00:58:26.740Z,101582.47
2023-02-26T01:00:53.071Z,101579.84
2023-02-26T01:03:19.658Z,101582.59
2023-02-26T01:05:46.243Z,101578.34
2023-02-26T01:08:14.875Z,101582.66
2023-02-26T01:10:43.065Z,101590.69
2023-02-26T01:13:09.509Z,101589.03
2023-02-26T01:15:36.091Z,101587.25
2023-02-26T01:18:06.459Z,101589.22
2023-02-26T01:20:36.893Z,101595.16
2023-02-26T01:23:05.063Z,101588.38
2023-02-26T01:25:36.715Z,101588.25
2023-02-26T01:28:04.752Z,101597.19
2023-02-26T01:30:31.460Z,101591.88
2023-02-26T01:33:01.006Z,101594.94
2023-02-26T01:35:32.396Z,101594.75
2023-02-26T01:38:02.753Z,101597.41
2023-02-26T01:40:40.654Z,101610.06
2023-02-26T01:43:11.327Z,101607.44
2023-02-26T01:45:46.569Z,101609.91
2023-02-26T01:48:18.280Z,101610.78
2023-02-26T01:50:44.869Z,101603.19
2023-02-26T01:53:18.208Z,101612.47
2023-02-26T01:55:45.558Z,101614.22
2023-02-26T01:58:13.393Z,101621.28
2023-02-26T02:00:39.725Z,101619.66
2023-02-26T02:03:06.135Z,101617.81
2023-02-26T02:05:34.527Z,101625.59
2023-02-26T02:08:01.305Z,101630.22
2023-02-26T02:10:27.764Z,101629.06
2023-02-26T02:13:00.366Z,101645.75
2023-02-26T02:15:32.565Z,101649.56
2023-02-26T02:18:02.988Z,101655.84
2023-02-26T02:20:42.610Z,101660.16
2023-02-26T02:23:11.913Z,101661.00
2023-02-26T02:26:02.773Z,101657.53
2023-02-26T02:28:36.516Z,101656.69
2023-02-26T02:31:06.105Z,101655.97
2023-02-26T02:33:36.828Z,101653.56
2023-02-26T02:36:04.868Z,101655.22
2023-02-26T02:38:33.500Z,101655.16
2023-02-26T02:41:03.952Z,101655.28
2023-02-26T02:43:32.583Z,101655.34
2023-02-26T02:46:01.821Z,101660.63
2023-02-26T02:48:31.458Z,101655.81
2023-02-26T02:51:00.518Z,101663.63
2023-02-26T02:53:28.361Z,101667.88
2023-02-26T02:55:57.870Z,101672.94
2023-02-26T02:58:26.145Z,101671.97
2023-02-26T03:00:54.710Z,101675.50
2023-02-26T03:03:25.186Z,101679.09
2023-02-26T03:05:51.624Z,101683.16
2023-02-26T03:08:20.793Z,101679.13
2023-02-26T03:10:47.244Z,101683.66
2023-02-26T03:13:15.305Z,101683.28
2023-02-26T03:15:44.661Z,101688.59
2023-02-26T03:18:15.167Z,101695.66
2023-02-26T03:20:46.323Z,101691.66
2023-02-26T03:23:16.317Z,101697.78
2023-02-26T03:25:46.965Z,101699.44
2023-02-26T03:28:18.590Z,101696.78
2023-02-26T03:30:48.043Z,101707.25
2023-02-26T03:33:17.655Z,101713.41
2023-02-26T03:35:48.128Z,101706.34
2023-02-26T03:38:16.680Z,101718.66
2023-02-26T03:40:46.587Z,101722.00
2023-02-26T03:43:17.477Z,101715.88
2023-02-26T03:45:46.043Z,101721.75
2023-02-26T03:48:15.776Z,101724.69
2023-02-26T03:50:44.028Z,101731.72
2023-02-26T03:53:12.804Z,101732.34
2023-02-26T03:55:41.138Z,101732.50
2023-02-26T03:58:07.631Z,101728.94
2023-02-26T04:00:36.786Z,101737.66
2023-02-26T04:03:07.646Z,101741.19
2023-02-26T04:05:36.023Z,101746.53
2023-02-26T04:08:02.760Z,101749.91
2023-02-26T04:10:32.686Z,101750.88
2023-02-26T04:12:59.842Z,101757.94
2023-02-26T04:15:26.247Z,101755.41
2023-02-26T04:17:53.948Z,101755.94
2023-02-26T04:20:20.548Z,101752.84
2023-02-26T04:22:46.849Z,101761.53
2023-02-26T04:25:13.168Z,101764.94
2023-02-26T04:27:39.453Z,101762.56
2023-02-26T04:30:06.572Z,101760.91
2023-02-26T04:32:32.933Z,101768.66
2023-02-26T04:35:00.583Z,101768.72
2023-02-26T04:37:26.912Z,101779.41
2023-02-26T04:39:53.214Z,101789.06
2023-02-26T04:42:19.523Z,101793.44
2023-02-26T04:44:45.894Z,101794.47
2023-02-26T04:47:12.185Z,101785.97
2023-02-26T04:49:38.629Z,101792.03
2023-02-26T04:52:06.574Z,101799.25
2023-02-26T04:54:32.936Z,101805.69
2023-02-26T04:56:59.284Z,101800.38
2023-02-26T04:59:25.709Z,101807.19
2023-02-26T05:01:52.156Z,101812.63
2023-02-26T05:04:18.619Z,101818.88
2023-02-26T05:06:44.945Z,101821.25
2023-02-26T05:09:12.644Z,101825.59
2023-02-26T05:11:38.993Z,101828.34
2023-02-26T05:14:05.307Z,101824.69
2023-02-26T05:16:31.679Z,101823.69
2023-02-26T05:18:58.041Z,101825.38
2023-02-26T05:21:26.218Z,101825.44
2023-02-26T05:23:52.740Z,101840.28
2023-02-26T05:26:20.446Z,101836.03
2023-02-26T05:28:46.741Z,101837.63
2023-02-26T05:31:13.156Z,101847.25
2023-02-26T05:33:39.518Z,101849.91
2023-02-26T05:36:06.085Z,101847.31
2023-02-26T05:38:32.557Z,101850.09
2023-02-26T05:40:59.523Z,101851.34
2023-02-26T05:43:27.587Z,101856.66
2023-02-26T05:45:54.445Z,101857.53
2023-02-26T05:48:21.252Z,101861.25
2023-02-26T05:50:48.303Z,101860.53
2023-02-26T05:53:14.668Z,101866.59
2023-02-26T05:55:40.999Z,101872.91
2023-02-26T05:58:07.285Z,101878.00
2023-02-26T06:00:34.963Z,101873.66
2023-02-26T06:03:01.297Z,101882.53
2023-02-26T06:05:27.748Z,101886.31
2023-02-26T06:07:54.128Z,101888.06
2023-02-26T06:10:20.569Z,101896.47
2023-02-26T06:12:46.850Z,101901.69
2023-02-26T06:15:13.196Z,101897.09
2023-02-26T06:17:41.050Z,101907.69
2023-02-26T06:20:07.921Z,101905.03
2023-02-26T06:22:34.255Z,101911.88
2023-02-26T06:25:00.599Z,101923.97
2023-02-26T06:27:27.056Z,101922.47
2023-02-26T06:29:53.431Z,101925.19
2023-02-26T06:32:19.950Z,101929.66
2023-02-26T06:34:47.736Z,101933.22
2023-02-26T06:37:16.340Z,101940.88
2023-02-26T06:39:42.671Z,101945.28
2023-02-26T06:42:08.994Z,101946.03
2023-02-26T06:44:35.322Z,101949.38
2023-02-26T06:47:01.830Z,101954.59
2023-02-26T06:49:28.156Z,101957.91
2023-02-26T06:51:56.088Z,101964.81
2023-02-26T06:54:22.477Z,101964.91
2023-02-26T06:56:48.772Z,101960.59
2023-02-26T06:59:15.084Z,101970.16
2023-02-26T07:01:41.445Z,101971.03
2023-02-26T07:04:07.774Z,101982.16
2023-02-26T07:06:34.314Z,101988.06
2023-02-26T07:09:02.228Z,101987.91
2023-02-26T07:11:28.567Z,101995.56
2023-02-26T07:13:54.935Z,101992.84
2023-02-26T07:16:21.251Z,101989.25
2023-02-26T07:18:47.571Z,101994.13
2023-02-26T07:21:13.883Z,102000.94
2023-02-26T07:23:40.174Z,102008.66
2023-02-26T07:26:07.844Z,102006.75
2023-02-26T07:28:34.177Z,102015.03
2023-02-26T07:31:00.540Z,102021.25
2023-02-26T07:33:27.004Z,102020.19
2023-02-26T07:35:53.359Z,102029.41
2023-02-26T07:38:19.984Z,102027.69
2023-02-26T07:40:46.367Z,102043.88
2023-02-26T07:43:14.049Z,102042.25
2023-02-26T07:45:40.504Z,102039.44
2023-02-26T07:48:06.991Z,102045.47
2023-02-26T07:50:33.363Z,102047.28
2023-02-26T07:52:59.672Z,102046.31
2023-02-26T07:55:26.110Z,102059.13
2023-02-26T07:57:52.498Z,102050.34
2023-02-26T08:00:20.529Z,102056.25
2023-02-26T08:02:46.927Z,102068.00
2023-02-26T08:05:13.265Z,102064.47
2023-02-26T08:07:39.664Z,102063.41
2023-02-26T08:10:06.323Z,102066.69
2023-02-26T08:12:32.640Z,102072.59
2023-02-26T08:14:58.985Z,102075.16
2023-02-26T08:17:26.709Z,102077.63
2023-02-26T08:19:53.073Z,102072.09
2023-02-26T08:22:19.411Z,102073.19
2023-02-26T08:24:45.701Z,102077.63
2023-02-26T08:27:13.593Z,102083.00
2023-02-26T08:29:40.060Z,102082.25
2023-02-26T08:32:06.587Z,102080.59
2023-02-26T08:34:34.383Z,102083.06
2023-02-26T08:37:00.738Z,102090.38
2023-02-26T08:39:27.019Z,102090.63
2023-02-26T08:41:53.341Z,102091.06
2023-02-26T08:44:19.674Z,102101.31
2023-02-26T08:46:45.965Z,102095.69
2023-02-26T08:49:12.295Z,102098.63
2023-02-26T08:51:39.965Z,102094.94
2023-02-26T08:54:06.301Z,102103.75
2023-02-26T08:56:32.640Z,102106.94
2023-02-26T08:58:58.966Z,102117.25
2023-02-26T09:01:25.768Z,102108.59
2023-02-26T09:03:52.277Z,102113.75
2023-02-26T09:06:18.604Z,102123.22
2023-02-26T09:08:46.222Z,102127.22
2023-02-26T09:11:12.691Z,102134.94
2023-02-26T09:13:38.964Z,102146.88
2023-02-26T09:16:05.882Z,102150.03
2023-02-26T09:18:32.340Z,102146.72
2023-02-26T09:20:58.709Z,102152.56
2023-02-26T09:23:25.066Z,102148.50
2023-02-26T09:25:53.848Z,102160.72
2023-02-26T09:28:20.425Z,102166.44
2023-02-26T09:30:46.794Z,102170.88
2023-02-26T09:33:13.153Z,102172.03
2023-02-26T09:35:39.496Z,102171.75
2023-02-26T09:38:05.782Z,102177.38
2023-02-26T09:40:39.381Z,102177.44
2023-02-26T09:43:12.033Z,102186.59
2023-02-26T09:45:40.160Z,102183.63
2023-02-26T09:48:06.819Z,102194.41
2023-02-26T09:50:39.378Z,102195.34
2023-02-26T09:53:09.711Z,102194.78
2023-02-26T09:55:37.399Z,102189.22
2023-02-26T09:58:04.656Z,102190.63
2023-02-26T10:00:34.786Z,102204.25
2023-02-26T10:03:05.844Z,102208.47
2023-02-26T10:05:34.985Z,102216.81
2023-02-26T10:08:04.019Z,102219.06
2023-02-26T10:10:35.137Z,102216.69
2023-02-26T10:13:01.982Z,102229.06
2023-02-26T10:15:30.319Z,102226.50
2023-02-26T10:18:01.764Z,102223.13
2023-02-26T10:20:30.661Z,102226.44
2023-02-26T10:23:00.617Z,102232.19
2023-02-26T10:25:28.905Z,102231.25
2023-02-26T10:28:01.743Z,102241.28
2023-02-26T10:30:33.351Z,102232.38
2023-02-26T10:33:03.823Z,102239.75
2023-02-26T10:35:32.280Z,102237.69
2023-02-26T10:37:59.708Z,102227.19
2023-02-26T10:40:29.788Z,102223.25
2023-02-26T10:42:58.314Z,102235.22
2023-02-26T10:45:30.391Z,102227.31
2023-02-26T10:48:01.339Z,102224.75
2023-02-26T10:50:29.355Z,102228.63
2023-02-26T10:52:56.052Z,102224.22
2023-02-26T10:55:29.414Z,102232.94
2023-02-26T10:58:00.019Z,102240.13
2023-02-26T11:00:26.326Z,102233.78
2023-02-26T11:02:56.225Z,102235.34
2023-02-26T11:05:23.889Z,102237.22
2023-02-26T11:07:54.527Z,102245.53
2023-02-26T11:10:23.642Z,102250.97
2023-02-26T11:12:49.947Z,102243.53
2023-02-26T11:15:17.615Z,102252.53
2023-02-26T11:17:45.416Z,102246.63
2023-02-26T11:20:17.034Z,102253.31
2023-02-26T11:22:45.662Z,102261.47
2023-02-26T11:25:16.784Z,102249.22
2023-02-26T11:27:43.369Z,102248.19
2023-02-26T11:30:15.216Z,102250.56
2023-02-26T11:32:41.597Z,102252.00
2023-02-26T11:35:08.819Z,102255.38
2023-02-26T11:37:36.555Z,102253.50
2023-02-26T11:40:05.477Z,102248.19
2023-02-26T11:42:35.324Z,102248.63
2023-02-26T11:45:01.736Z,102252.69
2023-02-26T11:47:29.586Z,102254.72
2023-02-26T11:50:00.166Z,102248.56
2023-02-26T11:52:28.646Z,102252.19
2023-02-26T11:54:56.165Z,102242.69
2023-02-26T11:57:24.359Z,102243.59
2023-02-26T11:59:52.952Z,102253.38
2023-02-26T12:02:20.394Z,102255.81
2023-02-26T12:04:48.940Z,102264.28
2023-02-26T12:07:16.713Z,102256.59
2023-02-26T12:09:43.921Z,102255.81
2023-02-26T12:12:16.503Z,102250.47
2023-02-26T12:14:53.307Z,102248.94
2023-02-26T12:17:30.661Z,102242.47
2023-02-26T12:20:02.796Z,102245.41
2023-02-26T12:22:40.390Z,102240.91
2023-02-26T12:25:18.668Z,102241.75
2023-02-26T12:27:55.252Z,102246.34
2023-02-26T12:30:28.307Z,102246.00
2023-02-26T12:33:03.597Z,102243.94
2023-02-26T12:35:51.202Z,102239.91
2023-02-26T12:38:24.872Z,102236.72
2023-02-26T12:41:00.784Z,102244.38
2023-02-26T12:43:35.318Z,102235.69
2023-02-26T12:46:05.784Z,102234.41
2023-02-26T12:48:40.998Z,102236.06
2023-02-26T12:51:12.966Z,102236.06
2023-02-26T12:53:54.370Z,102233.69
2023-02-26T12:56:27.680Z,102238.03
2023-02-26T12:58:59.902Z,102240.94
2023-02-26T13:01:45.150Z,102245.91
2023-02-26T13:04:42.971Z,102243.28
2023-02-26T13:07:20.156Z,102241.50
2023-02-26T13:09:52.275Z,102247.31
2023-02-26T13:12:24.469Z,102244.94
2023-02-26T13:14:55.726Z,102237.38
2023-02-26T13:17:27.164Z,102229.72
2023-02-26T13:19:55.316Z,102236.91
2023-02-26T13:22:25.846Z,102245.41
2023-02-26T13:24:55.026Z,102233.00
2023-02-26T13:27:22.788Z,102231.63
2023-02-26T13:29:51.525Z,102238.91
2023-02-26T13:32:19.708Z,102238.91
2023-02-26T13:34:50.340Z,102228.00
2023-02-26T13:37:21.837Z,102226.50
2023-02-26T13:39:55.006Z,102235.84
2023-02-26T13:42:26.941Z,102236.81
2023-02-26T13:45:00.283Z,102243.09
2023-02-26T13:47:34.637Z,102237.53
2023-02-26T13:50:09.629Z,102226.59
2023-02-26T13:52:36.236Z,102232.78
2023-02-26T13:55:05.035Z,102232.97
2023-02-26T13:57:36.212Z,102237.25
2023-02-26T14:00:07.676Z,102229.94
2023-02-26T14:02:53.977Z,102232.53
2023-02-26T14:05:44.298Z,102235.56
2023-02-26T14:08:20.802Z,102231.47
2023-02-26T14:10:54.151Z,102224.94
2023-02-26T14:13:21.898Z,102229.97
2023-02-26T14:15:53.677Z,102232.41
2023-02-26T14:18:25.133Z,102223.53
2023-02-26T14:20:51.464Z,102228.09
2023-02-26T14:23:36.655Z,102228.66
2023-02-26T14:26:17.888Z,102224.59
2023-02-26T14:28:45.754Z,102230.22
2023-02-26T14:31:14.748Z,102225.56
2023-02-26T14:33:44.409Z,102230.13
2023-02-26T14:36:16.219Z,102226.81
2023-02-26T14:38:42.693Z,102231.06
2023-02-26T14:41:13.032Z,102228.34
2023-02-26T14:43:42.831Z,102233.63
2023-02-26T14:46:10.311Z,102222.31
2023-02-26T14:48:37.641Z,102225.03
2023-02-26T14:51:11.442Z,102221.91
2023-02-26T14:53:46.605Z,102222.75
2023-02-26T14:56:17.087Z,102229.13
2023-02-26T14:58:51.882Z,102226.94
2023-02-26T15:01:25.557Z,102226.84
2023-02-26T15:04:07.486Z,102232.31
2023-02-26T15:06:42.422Z,102222.53
2023-02-26T15:09:14.843Z,102224.41
2023-02-26T15:11:56.313Z,102237.81
2023-02-26T15:14:35.446Z,102236.13
2023-02-26T15:17:07.150Z,102240.78
2023-02-26T15:19:43.724Z,102234.81
2023-02-26T15:22:17.881Z,102228.13
2023-02-26T15:24:44.640Z,102223.16
2023-02-26T15:27:15.078Z,102234.38
2023-02-26T15:29:42.784Z,102227.16
2023-02-26T15:32:14.923Z,102241.66
2023-02-26T15:34:42.340Z,102237.97
2023-02-26T15:37:18.054Z,102235.34
2023-02-26T15:39:48.110Z,102235.59
2023-02-26T15:42:15.190Z,102229.63
2023-02-26T15:44:56.447Z,102238.16
2023-02-26T15:47:23.613Z,102242.56
2023-02-26T15:49:49.990Z,102251.44
2023-02-26T15:52:19.056Z,102247.91
2023-02-26T15:54:47.548Z,102246.88
2023-02-26T15:57:14.765Z,102254.75
2023-02-26T15:59:43.390Z,102249.41
2023-02-26T16:02:12.924Z,102252.41
2023-02-26T16:04:39.293Z,102248.81
2023-02-26T16:07:05.650Z,102256.22
2023-02-26T16:09:34.467Z,102248.84
2023-02-26T16:12:03.849Z,102248.88
2023-02-26T16:14:31.754Z,102248.47
2023-02-26T16:16:58.705Z,102260.03
2023-02-26T16:19:31.361Z,102254.38
2023-02-26T16:21:58.352Z,102255.75
2023-02-26T16:24:25.915Z,102254.09
2023-02-26T16:26:53.382Z,102257.59
2023-02-26T16:29:22.745Z,102257.56
2023-02-26T16:31:52.437Z,102264.84
2023-02-26T16:34:32.518Z,102269.91
2023-02-26T16:37:09.385Z,102271.94
2023-02-26T16:39:35.713Z,102275.25
2023-02-26T16:42:07.981Z,102280.69
2023-02-26T16:44:44.943Z,102277.56
2023-02-26T16:47:11.762Z,102281.38
2023-02-26T16:49:40.228Z,102273.31
2023-02-26T16:52:06.852Z,102281.25
2023-02-26T16:54:35.195Z,102284.66
2023-02-26T16:57:04.537Z,102291.50
2023-02-26T16:59:32.086Z,102284.56
2023-02-26T17:02:00.610Z,102289.25
2023-02-26T17:04:28.931Z,102287.31
2023-02-26T17:06:56.668Z,102290.16
2023-02-26T17:09:25.559Z,102301.06
2023-02-26T17:12:02.602Z,102305.13
2023-02-26T17:14:32.011Z,102303.56
2023-02-26T17:16:58.333Z,102300.47
2023-02-26T17:19:24.669Z,102308.22
2023-02-26T17:21:53.095Z,102302.19
2023-02-26T17:24:24.205Z,102310.44
2023-02-26T17:26:53.168Z,102322.78
2023-02-26T17:29:20.768Z,102316.81
2023-02-26T17:31:47.209Z,102319.91
2023-02-26T17:34:13.611Z,102321.97
2023-02-26T17:36:39.960Z,102330.59
2023-02-26T17:39:06.362Z,102333.34
2023-02-26T17:41:34.086Z,102339.91
2023-02-26T17:44:00.393Z,102348.38
2023-02-26T17:46:28.564Z,102348.44
2023-02-26T17:48:54.916Z,102351.91
2023-02-26T17:51:21.248Z,102352.47
2023-02-26T17:53:47.553Z,102359.69
2023-02-26T17:56:17.270Z,102357.28
2023-02-26T17:58:44.943Z,102360.09
2023-02-26T18:01:11.323Z,102356.97
2023-02-26T18:03:37.707Z,102357.22
2023-02-26T18:06:04.333Z,102366.13
2023-02-26T18:08:31.775Z,102362.88
2023-02-26T18:10:58.790Z,102365.63
2023-02-26T18:13:25.328Z,102363.16
2023-02-26T18:15:53.732Z,102372.00
2023-02-26T18:18:21.387Z,102369.50
2023-02-26T18:20:48.292Z,102371.56
2023-02-26T18:23:14.625Z,102369.19
2023-02-26T18:25:41.684Z,102369.06
2023-02-26T18:28:10.684Z,102378.81
2023-02-26T18:30:37.052Z,102374.56
2023-02-26T18:33:04.759Z,102373.78
2023-02-26T18:35:31.694Z,102377.38
2023-02-26T18:37:58.034Z,102376.63
2023-02-26T18:40:25.144Z,102379.19
2023-02-26T18:42:51.554Z,102374.88
2023-02-26T18:45:18.301Z,102377.66
2023-02-26T18:47:44.710Z,102371.66
2023-02-26T18:50:13.950Z,102371.66
2023-02-26T18:52:40.606Z,102377.88
2023-02-26T18:55:07.309Z,102378.84
2023-02-26T18:57:33.647Z,102384.25
2023-02-26T18:59:59.969Z,102386.06
2023-02-26T19:02:26.421Z,102385.94
2023-02-26T19:04:52.780Z,102395.06
2023-02-26T19:07:20.445Z,102392.53
2023-02-26T19:09:46.791Z,102389.91
2023-02-26T19:12:13.156Z,102401.28
2023-02-26T19:14:39.675Z,102396.06
2023-02-26T19:17:05.992Z,102401.25
2023-02-26T19:19:32.341Z,102401.16
2023-02-26T19:21:58.711Z,102401.94
2023-02-26T19:24:26.452Z,102407.13
2023-02-26T19:26:52.783Z,102408.78
2023-02-26T19:29:19.534Z,102414.41
2023-02-26T19:31:46.155Z,102412.84
2023-02-26T19:34:12.577Z,102413.97
2023-02-26T19:36:38.908Z,102415.59
2023-02-26T19:39:05.599Z,102421.59
2023-02-26T19:41:33.649Z,102424.38
2023-02-26T19:44:00.028Z,102430.69
2023-02-26T19:46:26.401Z,102430.63
2023-02-26T19:48:52.792Z,102429.94
2023-02-26T19:51:19.139Z,102440.53
2023-02-26T19:53:45.480Z,102441.09
2023-02-26T19:56:11.830Z,102435.06
2023-02-26T19:58:39.767Z,102438.94
2023-02-26T20:01:06.845Z,102435.00
2023-02-26T20:03:33.440Z,102436.19
2023-02-26T20:05:59.853Z,102435.47
2023-02-26T20:08:26.960Z,102435.06
2023-02-26T20:10:54.025Z,102444.69
2023-02-26T20:13:21.580Z,102447.69
2023-02-26T20:15:51.873Z,102448.59
2023-02-26T20:18:19.568Z,102454.75
2023-02-26T20:20:45.941Z,102445.28
2023-02-26T20:23:12.297Z,102452.50
2023-02-26T20:25:38.680Z,102450.19
2023-02-26T20:28:05.231Z,102451.81
2023-02-26T20:30:32.119Z,102451.53
2023-02-26T20:32:59.956Z,102457.84
2023-02-26T20:35:26.412Z,102464.16
2023-02-26T20:37:52.706Z,102465.97
2023-02-26T20:40:19.140Z,102465.16
2023-02-26T20:42:45.434Z,102472.34
2023-02-26T20:45:11.805Z,102472.44
2023-02-26T20:47:38.183Z,102474.41
2023-02-26T20:50:06.607Z,102476.38
2023-02-26T20:52:32.936Z,102470.44
2023-02-26T20:54:59.220Z,102476.59
2023-02-26T20:57:25.582Z,102478.59
2023-02-26T20:59:51.964Z,102480.47
2023-02-26T21:02:18.306Z,102487.41
2023-02-26T21:04:44.765Z,102482.06
2023-02-26T21:07:12.581Z,102494.47
2023-02-26T21:09:38.960Z,102483.13
2023-02-26T21:12:05.437Z,102490.44
2023-02-26T21:14:31.799Z,102486.00
2023-02-26T21:16:58.107Z,102496.63
2023-02-26T21:19:24.491Z,102499.53
2023-02-26T21:21:50.988Z,102497.84
2023-02-26T21:24:18.620Z,102498.78
2023-02-26T21:26:44.918Z,102498.31
2023-02-26T21:29:11.251Z,102495.88
2023-02-26T21:31:37.594Z,102501.03
2023-02-26T21:34:23.509Z,102503.94
2023-02-26T21:36:50.490Z,102506.28
2023-02-26T21:39:17.253Z,102510.06
2023-02-26T21:41:44.880Z,102498.94
2023-02-26T21:44:11.173Z,102505.88
2023-02-26T21:46:37.504Z,102501.50
2023-02-26T21:49:03.794Z,102502.56
2023-02-26T21:51:30.142Z,102500.09
2023-02-26T21:53:56.431Z,102509.72
2023-02-26T21:56:22.738Z,102504.78
2023-02-26T21:58:50.428Z,102511.09
2023-02-26T22:01:16.776Z,102516.38
2023-02-26T22:03:43.098Z,102506.91
2023-02-26T22:06:09.420Z,102508.00
2023-02-26T22:08:35.757Z,102505.53
2023-02-26T22:11:02.098Z,102512.38
2023-02-26T22:13:28.465Z,102522.06
2023-02-26T22:15:56.140Z,102511.59
2023-02-26T22:18:22.483Z,102522.16
2023-02-26T22:20:48.804Z,102514.22
2023-02-26T22:23:15.111Z,102510.03
2023-02-26T22:25:41.434Z,102518.00
2023-02-26T22:28:07.807Z,102512.69
2023-02-26T22:30:34.141Z,102515.38
2023-02-26T22:33:01.810Z,102521.38
2023-02-26T22:35:28.290Z,102522.16
2023-02-26T22:37:54.643Z,102515.94
2023-02-26T22:40:21.166Z,102523.13
2023-02-26T22:42:47.819Z,102524.19
2023-02-26T22:45:14.205Z,102523.19
2023-02-26T22:47:40.510Z,102525.06
2023-02-26T22:50:08.844Z,102526.78
2023-02-26T22:52:35.148Z,102530.34
2023-02-26T22:55:01.497Z,102536.56
2023-02-26T22:57:27.821Z,102534.97
2023-02-26T22:59:54.161Z,102538.63
2023-02-26T23:02:20.528Z,102536.09
2023-02-26T23:04:46.865Z,102530.00
2023-02-26T23:07:14.570Z,102529.16
2023-02-26T23:09:40.894Z,102537.16
2023-02-26T23:12:07.213Z,102539.03
2023-02-26T23:14:33.906Z,102539.13
2023-02-26T23:17:00.230Z,102544.34
2023-02-26T23:19:26.714Z,102534.91
2023-02-26T23:21:53.008Z,102542.72
2023-02-26T23:24:20.723Z,102543.59
2023-02-26T23:26:47.050Z,102548.06
2023-02-26T23:29:13.488Z,102541.22
2023-02-26T23:31:39.893Z,102543.88
2023-02-26T23:34:06.379Z,102540.41
2023-02-26T23:36:32.776Z,102544.66
2023-02-26T23:38:59.101Z,102542.94
2023-02-26T23:41:27.142Z,102535.31
2023-02-26T23:43:53.648Z,102545.88
2023-02-26T23:46:20.000Z,102544.38
2023-02-26T23:48:46.355Z,102547.91
2023-02-26T23:51:12.682Z,102539.22
2023-02-26T23:53:39.027Z,102541.78
2023-02-26T23:56:05.875Z,102546.16
2023-02-26T23:58:33.689Z,102552.41
